createdAt,value
2022-11-10T00:01:08.282Z,10
2022-11-10T00:31:08.257Z,9.75
2022-11-10T00:36:08.250Z,9.87
2022-11-10T00:41:08.270Z,9.81
2022-11-10T00:46:08.236Z,9.75
2022-11-10T00:51:08.234Z,9.75
2022-11-10T00:56:08.236Z,9.75
2022-11-10T01:01:08.269Z,9.81
2022-11-10T01:06:08.220Z,9.75
2022-11-10T01:11:08.245Z,9.81
2022-11-10T01:16:08.201Z,9.68
2022-11-10T01:21:08.208Z,9.75
2022-11-10T01:26:08.203Z,9.68
2022-11-10T01:31:08.193Z,9.62
2022-11-10T01:36:08.190Z,9.75
2022-11-10T01:41:08.204Z,9.68
2022-11-10T01:46:08.192Z,9.68
2022-11-10T01:51:08.181Z,9.62
2022-11-10T01:56:08.181Z,9.75
2022-11-10T02:01:08.204Z,9.68
2022-11-10T02:06:08.157Z,9.68
2022-11-10T02:11:08.147Z,9.62
2022-11-10T02:16:08.152Z,9.56
2022-11-10T02:21:08.148Z,9.56
2022-11-10T02:26:08.155Z,9.56
2022-11-10T02:31:08.135Z,9.62
2022-11-10T02:36:08.141Z,9.56
2022-11-10T02:41:08.128Z,9.56
2022-11-10T02:46:08.112Z,9.56
2022-11-10T02:51:08.117Z,9.62
2022-11-10T02:56:08.113Z,9.62
2022-11-10T03:01:08.159Z,9.75
2022-11-10T03:06:08.086Z,9.56
2022-11-10T03:11:08.112Z,9.56
2022-11-10T03:16:08.100Z,9.62
2022-11-10T03:21:08.101Z,9.56
2022-11-10T03:26:08.090Z,9.56
2022-11-10T03:31:08.079Z,9.62
2022-11-10T03:36:08.071Z,9.81
2022-11-10T03:41:23.345Z,9.43
2022-11-10T03:46:08.070Z,8.87
2022-11-10T03:51:08.061Z,8.68
2022-11-10T03:56:08.039Z,8.5
2022-11-10T04:01:08.048Z,8.5
2022-11-10T04:06:08.063Z,8.43
2022-11-10T04:11:08.046Z,8.43
2022-11-10T04:16:08.027Z,8.56
2022-11-10T04:21:08.051Z,8.5
2022-11-10T04:26:08.024Z,8.43
2022-11-10T04:31:08.022Z,8.43
2022-11-10T04:36:08.011Z,8.5
2022-11-10T04:41:08.021Z,8.5
2022-11-10T04:46:08.001Z,8.43
2022-11-10T04:51:08.008Z,8.37
2022-11-10T04:56:07.997Z,8.37
2022-11-10T05:01:08.055Z,8.37
2022-11-10T05:06:07.978Z,8.37
2022-11-10T05:11:07.981Z,8.37
2022-11-10T05:16:07.980Z,8.37
2022-11-10T05:21:07.963Z,8.37
2022-11-10T05:26:07.966Z,8.25
2022-11-10T05:31:07.965Z,8.25
2022-11-10T05:36:07.961Z,8.31
2022-11-10T05:41:07.963Z,8.37
2022-11-10T05:46:07.943Z,8.37
2022-11-10T05:51:07.998Z,8.37
2022-11-10T05:56:07.929Z,8.5
2022-11-10T06:01:07.924Z,8.43
2022-11-10T06:06:07.915Z,8.43
2022-11-10T06:11:07.917Z,8.5
2022-11-10T06:16:07.904Z,8.62
2022-11-10T06:21:07.927Z,8.43
2022-11-10T06:26:07.907Z,8.37
2022-11-10T06:31:07.892Z,8.31
2022-11-10T06:36:07.893Z,8.43
2022-11-10T06:41:07.890Z,8.43
2022-11-10T06:46:07.892Z,8.5
2022-11-10T06:51:07.891Z,8.62
2022-11-10T06:56:07.881Z,8.62
2022-11-10T07:01:07.937Z,8.56
2022-11-10T07:06:07.888Z,8.5
2022-11-10T07:16:07.855Z,8.18
2022-11-10T07:21:07.864Z,7.93
2022-11-10T07:26:07.857Z,8.06
2022-11-10T07:31:07.854Z,8.18
2022-11-10T07:36:07.869Z,8.43
2022-11-10T07:41:07.842Z,8.37
2022-11-10T07:46:07.879Z,8.37
2022-11-10T07:51:07.840Z,8.25
2022-11-10T07:56:07.826Z,8.31
2022-11-10T08:01:07.834Z,8.5
2022-11-10T08:06:07.837Z,8.75
2022-11-10T08:11:07.807Z,9.06
2022-11-10T08:16:07.796Z,9.43
2022-11-10T08:21:07.829Z,9.68
2022-11-10T08:26:07.790Z,10.18
2022-11-10T08:31:07.780Z,10.5
2022-11-10T08:36:07.786Z,10.62
2022-11-10T08:41:07.775Z,10.93
2022-11-10T08:46:07.785Z,11.12
2022-11-10T08:51:07.777Z,10.87
2022-11-10T08:56:07.760Z,11.43
2022-11-10T09:01:07.784Z,11.5
2022-11-10T09:06:07.746Z,11.37
2022-11-10T09:11:07.766Z,10.93
2022-11-10T09:16:07.743Z,10.87
2022-11-10T09:21:07.741Z,10.62
2022-11-10T09:26:07.735Z,10.81
2022-11-10T09:31:07.732Z,11
2022-11-10T09:36:07.733Z,11.18
2022-11-10T09:41:07.722Z,10.93
2022-11-10T09:46:07.721Z,10.62
2022-11-10T09:51:07.736Z,10.56
2022-11-10T09:56:07.703Z,10.5
2022-11-10T10:01:07.765Z,10.43
2022-11-10T10:06:07.696Z,10.75
2022-11-10T10:11:07.687Z,11.62
2022-11-10T10:16:07.671Z,12.68
2022-11-10T10:21:07.675Z,12.68
2022-11-10T10:26:07.659Z,12.31
2022-11-10T10:31:07.666Z,12.25
2022-11-10T10:36:07.662Z,12.06
2022-11-10T10:41:07.656Z,11.56
2022-11-10T10:46:07.630Z,11.62
2022-11-10T10:51:07.644Z,11.68
2022-11-10T10:56:07.648Z,11.56
2022-11-10T11:01:07.679Z,12.5
2022-11-10T11:06:07.630Z,12.12
2022-11-10T11:11:07.624Z,12.5
2022-11-10T11:16:07.606Z,13
2022-11-10T11:21:07.635Z,12.75
2022-11-10T11:26:07.606Z,12.93
2022-11-10T11:36:07.677Z,13.31
2022-11-10T11:41:07.595Z,12.87
2022-11-10T11:46:07.569Z,12.56
2022-11-10T11:51:07.581Z,12.68
2022-11-10T11:56:07.565Z,13.56
2022-11-10T12:01:07.566Z,13.62
2022-11-10T12:06:07.555Z,12.87
2022-11-10T12:11:07.552Z,12.62
2022-11-10T12:16:07.578Z,12.5
2022-11-10T12:21:07.547Z,12.37
2022-11-10T12:26:07.552Z,12.18
2022-11-10T12:31:07.517Z,12.31
2022-11-10T12:36:07.569Z,12.37
2022-11-10T12:41:07.532Z,11.81
2022-11-10T12:46:07.522Z,11.62
2022-11-10T12:51:07.489Z,11.87
2022-11-10T12:56:07.499Z,11.37
2022-11-10T13:01:07.560Z,11.06
2022-11-10T13:06:07.479Z,11.25
2022-11-10T13:11:07.486Z,11.18
2022-11-10T13:16:07.461Z,11.18
2022-11-10T13:21:07.466Z,10.87
2022-11-10T13:26:07.457Z,10.43
2022-11-10T13:36:07.458Z,10.06
2022-11-10T13:41:07.454Z,10.56
2022-11-10T13:51:07.441Z,11.31
2022-11-10T14:06:07.422Z,10.18
2022-11-10T14:11:07.421Z,10.18
2022-11-10T14:21:07.413Z,10
2022-11-10T14:36:07.383Z,9.5
2022-11-10T14:51:07.382Z,9
2022-11-10T14:56:07.376Z,8.93
2022-11-10T15:01:07.381Z,8.75
2022-11-10T15:06:07.354Z,8.62
2022-11-10T15:11:07.355Z,8.5
2022-11-10T15:16:07.364Z,8.31
2022-11-10T15:21:07.348Z,8.18
2022-11-10T15:26:07.356Z,8.06
2022-11-10T15:31:07.343Z,7.93
2022-11-10T15:36:07.381Z,7.81
2022-11-10T15:41:07.337Z,7.62
2022-11-10T15:46:07.334Z,7.62
2022-11-10T15:51:07.337Z,7.5
2022-11-10T15:56:07.310Z,7.31
2022-11-10T16:01:07.350Z,7.25
2022-11-10T16:06:07.317Z,7.12
2022-11-10T16:11:07.305Z,7
2022-11-10T16:16:07.333Z,7.06
2022-11-10T16:21:07.296Z,7.06
2022-11-10T16:26:07.282Z,6.93
2022-11-10T16:31:07.300Z,6.68
2022-11-10T16:36:07.291Z,6.62
2022-11-10T16:41:07.289Z,6.43
2022-11-10T16:46:07.283Z,6.5
2022-11-10T16:51:07.269Z,6.37
2022-11-10T16:56:07.271Z,6.43
2022-11-10T17:01:07.293Z,6.25
2022-11-10T17:06:07.262Z,6.06
2022-11-10T17:11:07.257Z,6.18
2022-11-10T17:16:07.245Z,6.31
2022-11-10T17:21:07.247Z,6.18
2022-11-10T17:26:07.256Z,6.06
2022-11-10T17:31:07.244Z,5.93
2022-11-10T17:36:07.238Z,5.87
2022-11-10T17:41:07.239Z,5.62
2022-11-10T17:46:07.225Z,5.68
2022-11-10T17:51:07.240Z,5.56
2022-11-10T17:56:07.220Z,5.43
2022-11-10T18:01:07.257Z,5.25
2022-11-10T18:06:07.217Z,5.5
2022-11-10T18:11:07.218Z,5.5
2022-11-10T18:16:07.219Z,5.31
2022-11-10T18:21:07.203Z,5.43
2022-11-10T18:26:07.214Z,5.37
2022-11-10T18:31:07.201Z,5.18
2022-11-10T18:41:07.182Z,5.31
2022-11-10T18:46:07.188Z,4.87
2022-11-10T18:51:07.186Z,4.87
2022-11-10T18:56:07.178Z,4.93
2022-11-10T19:01:07.241Z,4.81
2022-11-10T19:06:07.192Z,4.75
2022-11-10T19:11:07.171Z,4.62
2022-11-10T19:16:07.160Z,4.75
2022-11-10T19:21:07.155Z,4.68
2022-11-10T19:26:07.155Z,4.62
2022-11-10T19:31:07.162Z,4.68
2022-11-10T19:36:07.149Z,4.68
2022-11-10T19:41:07.143Z,4.5
2022-11-10T19:46:07.143Z,4.75
2022-11-10T19:51:07.148Z,4.75
2022-11-10T19:56:07.127Z,4.5
2022-11-10T20:01:07.183Z,4.37
2022-11-10T20:06:07.163Z,4.5
2022-11-10T20:11:07.137Z,4.06
2022-11-10T20:16:07.123Z,4.12
2022-11-10T20:21:07.117Z,4.5
2022-11-10T20:26:07.132Z,4.62
2022-11-10T20:31:07.112Z,4.37
2022-11-10T20:36:07.104Z,4.37
2022-11-10T20:41:07.116Z,4.43
2022-11-10T20:46:07.192Z,3.93
2022-11-10T20:51:07.107Z,3.75
2022-11-10T20:56:07.096Z,3.68
2022-11-10T21:01:07.095Z,3.75
2022-11-10T21:06:07.096Z,4.12
2022-11-10T21:11:07.097Z,4.18
2022-11-10T21:16:07.090Z,4
2022-11-10T21:21:07.095Z,3.87
2022-11-10T21:26:07.072Z,3.93
2022-11-10T21:31:07.092Z,4.06
2022-11-10T21:36:07.093Z,3.62
2022-11-10T21:41:07.053Z,3.68
2022-11-10T21:46:07.049Z,3.68
2022-11-10T21:51:07.073Z,3.93
2022-11-10T21:56:07.050Z,4.06
2022-11-10T22:01:07.078Z,3.93
2022-11-10T22:06:07.044Z,3.93
2022-11-10T22:11:07.061Z,3.93
2022-11-10T22:16:07.051Z,3.68
2022-11-10T22:21:07.038Z,4
2022-11-10T22:26:07.035Z,4
2022-11-10T22:31:07.027Z,3.87
2022-11-10T22:36:07.030Z,3.81
2022-11-10T22:41:07.016Z,3.56
2022-11-10T22:46:07.017Z,3.25
2022-11-10T22:51:07.071Z,3.62
2022-11-10T22:56:07.017Z,3.62
2022-11-10T23:16:07.050Z,3.56
2022-11-10T23:21:07.011Z,3.62
2022-11-10T23:26:07.014Z,3.5
2022-11-10T23:31:07.006Z,3.18
2022-11-10T23:36:07.001Z,3.56
2022-11-10T23:41:06.977Z,3.18
2022-11-10T23:46:07.790Z,3.56
2022-11-10T23:51:07.007Z,3.56
2022-11-10T23:56:06.988Z,3.25
